Terminal Aerodrome Forecast
Issued by NWS

Current Version | Previous Version | Graphics & Text | Print | Product List | Glossary On
Versions: 1 2 3 4 5 6 7 8 9 10 11 12 13 14 15 16 17 18 19 20 21 22 23 24
683
FTUS41 KPBZ 181120
TAFHLG
TAF
KHLG 181120Z 1812/1912 28010G17KT P6SM OVC012
      TEMPO 1812/1814 -DZ OVC008
     FM181600 28008KT P6SM OVC007
     FM190200 27010KT P6SM OVC012
     FM191000 VRB05KT P6SM OVC022=

USA.gov is the U.S. government's official web portal to all federal, state and local government web resources and services.